Time;durP1;ratioP1;P1;durP2;ratioP2;P2;SDS_P1;SDS_P2;PMS_P1;PMS_P2;Temp;Humidity;BMP_temperature;BMP_pressure;BME280_temperature;BME280_humidity;BME280_pressure;Samples;Min_cycle;Max_cycle;Signal;HPM_P1;HPM_P2
2022/10/31 06:44:27;;;;;;;;;;;;;;;19.82;62.00;99637.42;1980578;72;20125;-76
2022/10/31 06:47:16;;;;;;;;;;;;;;;20.19;61.39;99632.27;1955433;73;20155;-75
2022/10/31 06:50:08;;;;;;;;;;;;;;;20.98;59.92;99621.27;1936367;73;20120;-75
2022/10/31 06:52:59;;;;;;;;;;;;;;;21.71;58.57;99625.09;1946819;73;20150;-74
2022/10/31 06:55:46;;;;;;;;;;;;;;;22.30;57.14;99627.73;1921479;75;20158;-77
2022/10/31 06:58:34;;;;;;;;;;;;;;;22.78;56.25;99627.77;1921683;75;20146;-77
2022/10/31 07:01:22;;;;;;;;;;;;;;;23.15;55.28;99621.09;1929269;73;20183;-73
2022/10/31 07:04:11;;;;;;;;;;;;;;;23.47;54.32;99618.37;1923969;73;20165;-73
2022/10/31 07:06:58;;;;;;;;;;;;;;;23.74;53.52;99621.45;1921518;75;20156;-77
2022/10/31 07:09:47;;;;;;;;;;;;;;;23.92;52.73;99613.12;1921659;75;20167;-78
2022/10/31 07:12:36;;;;;;;;;;;;;;;24.04;52.06;99605.15;1921457;75;20116;-75
2022/10/31 12:08:45;;;;;;;;;;;;;;;20.20;60.88;99386.61;1944122;72;20090;-76
2022/10/31 12:11:44;;;;;;;;;;;;;;;20.56;60.39;99375.83;1909157;75;20163;-78
2022/10/31 12:14:35;;;;;;;;;;;;;;;21.38;59.06;99381.92;1891599;75;20155;-78
2022/10/31 12:17:24;;;;;;;;;;;;;;;22.12;58.08;99360.49;1910296;75;20185;-76
2022/10/31 12:20:13;;;;;;;;;;;;;;;22.73;57.75;99361.48;1910556;75;20229;-78
2022/10/31 12:23:06;;;;;;;;;;;;;;;23.25;57.32;99363.17;1888410;76;20122;-76
2022/10/31 12:26:07;;;;;;;;;;;;;;;23.62;56.75;99358.77;1904321;75;20190;-76
2022/10/31 12:29:08;;;;;;;;;;;;;;;23.92;55.61;99352.48;1911858;74;20198;-76
2022/10/31 12:31:56;;;;;;;;;;;;;;;24.19;54.69;99340.34;1899273;75;20163;-76
2022/10/31 12:34:45;;;;;;;;;;;;;;;24.40;53.42;99335.48;1916996;75;20188;-78
2022/10/31 12:37:51;;;;;;;;;;;;;;;24.51;52.79;99332.64;1902059;75;20196;-78
2022/10/31 18:08:39;;;;;;;;;;;;;;;20.40;62.15;99303.26;1953758;72;20188;-76
2022/10/31 18:11:27;;;;;;;;;;;;;;;20.76;61.40;99309.30;1921262;75;20170;-73
2022/10/31 18:14:14;;;;;;;;;;;;;;;21.52;59.83;99294.05;1921127;75;20124;-74
2022/10/31 18:17:02;;;;;;;;;;;;;;;22.18;58.28;99300.72;1921183;73;20177;-76
2022/10/31 18:19:51;;;;;;;;;;;;;;;22.71;56.78;99298.44;1939391;73;20122;-74
2022/10/31 18:22:38;;;;;;;;;;;;;;;23.13;55.53;99302.08;1921277;75;20117;-75
2022/10/31 18:25:25;;;;;;;;;;;;;;;23.50;54.42;99297.66;1921277;75;20206;-76
2022/10/31 18:28:13;;;;;;;;;;;;;;;23.78;53.64;99285.30;1921115;75;20147;-75
2022/10/31 18:31:00;;;;;;;;;;;;;;;24.09;53.46;99296.25;1922977;73;20189;-76
2022/10/31 18:33:48;;;;;;;;;;;;;;;24.35;53.11;99291.47;1921567;75;20152;-77
2022/10/31 18:36:35;;;;;;;;;;;;;;;24.59;52.79;99296.53;1921349;75;20126;-77
2022/10/31 18:39:23;;;;;;;;;;;;;;;24.78;52.46;99292.98;1921411;75;20194;-77
2022/10/31 18:42:10;;;;;;;;;;;;;;;24.97;53.06;99294.32;1921199;75;20211;-76
2022/10/31 18:44:58;;;;;;;;;;;;;;;25.14;53.72;99306.63;1933309;73;20163;-76
2022/10/31 18:47:45;;;;;;;;;;;;;;;25.30;54.25;99296.11;1932558;73;20120;-78
2022/10/31 18:50:33;;;;;;;;;;;;;;;25.40;54.50;99291.57;1932662;73;20172;-76
2022/10/31 18:53:20;;;;;;;;;;;;;;;25.53;54.69;99281.30;1921326;75;20214;-77
2022/10/31 18:56:09;;;;;;;;;;;;;;;25.64;54.67;99285.80;1921265;75;20171;-72
2022/10/31 18:58:59;;;;;;;;;;;;;;;25.69;53.88;99288.61;1924912;73;20211;-73
2022/10/31 19:01:46;;;;;;;;;;;;;;;25.66;53.81;99293.25;1925826;73;20118;-72
2022/10/31 19:04:34;;;;;;;;;;;;;;;25.69;53.65;99289.98;1921227;75;20196;-73
2022/10/31 19:07:21;;;;;;;;;;;;;;;25.64;52.77;99292.14;1921235;75;20184;-73
2022/10/31 19:10:09;;;;;;;;;;;;;;;25.70;52.48;99294.38;1921324;75;20210;-76
2022/10/31 19:12:56;;;;;;;;;;;;;;;25.68;52.07;99269.89;1938597;73;20175;-78
2022/10/31 19:15:44;;;;;;;;;;;;;;;25.67;51.68;99275.09;1935495;73;20169;-76
